sensor_id;sensor_type;location;lat;lon;timestamp;pressure;altitude;pressure_sealevel;temperature;humidity
71917;BME280;59793;46.506;6.674;2022-12-18T00:03:53;98042.28;;;1.90;74.64
71917;BME280;59793;46.506;6.674;2022-12-18T00:06:19;98045.97;;;1.84;74.94
71917;BME280;59793;46.506;6.674;2022-12-18T00:08:45;98051.91;;;1.90;75.10
71917;BME280;59793;46.506;6.674;2022-12-18T00:11:11;98055.84;;;2.03;74.48
71917;BME280;59793;46.506;6.674;2022-12-18T00:13:37;98050.63;;;2.13;74.00
71917;BME280;59793;46.506;6.674;2022-12-18T00:16:03;98058.41;;;2.28;73.40
71917;BME280;59793;46.506;6.674;2022-12-18T00:18:28;98062.81;;;2.48;72.22
71917;BME280;59793;46.506;6.674;2022-12-18T00:20:54;98065.66;;;2.57;72.73
71917;BME280;59793;46.506;6.674;2022-12-18T00:23:23;98049.81;;;2.53;72.95
71917;BME280;59793;46.506;6.674;2022-12-18T00:25:48;98060.47;;;2.62;72.69
71917;BME280;59793;46.506;6.674;2022-12-18T00:28:13;98056.53;;;2.70;72.21
71917;BME280;59793;46.506;6.674;2022-12-18T00:30:38;98049.50;;;2.70;72.31
71917;BME280;59793;46.506;6.674;2022-12-18T00:33:04;98054.97;;;2.74;72.14
71917;BME280;59793;46.506;6.674;2022-12-18T00:35:29;98050.81;;;2.73;71.47
71917;BME280;59793;46.506;6.674;2022-12-18T00:37:54;98052.34;;;2.79;71.11
71917;BME280;59793;46.506;6.674;2022-12-18T00:40:19;98052.09;;;2.75;71.38
71917;BME280;59793;46.506;6.674;2022-12-18T00:42:45;98061.97;;;2.78;71.09
71917;BME280;59793;46.506;6.674;2022-12-18T00:45:23;98062.78;;;2.74;71.74
71917;BME280;59793;46.506;6.674;2022-12-18T00:47:48;98060.91;;;2.84;71.53
71917;BME280;59793;46.506;6.674;2022-12-18T00:50:14;98052.88;;;2.81;71.30
71917;BME280;59793;46.506;6.674;2022-12-18T00:52:39;98064.06;;;2.86;71.48
71917;BME280;59793;46.506;6.674;2022-12-18T00:55:04;98058.34;;;2.79;71.72
71917;BME280;59793;46.506;6.674;2022-12-18T00:57:30;98068.47;;;2.81;72.10
71917;BME280;59793;46.506;6.674;2022-12-18T00:59:55;98072.41;;;2.73;72.24
71917;BME280;59793;46.506;6.674;2022-12-18T01:02:20;98076.88;;;2.52;72.69
71917;BME280;59793;46.506;6.674;2022-12-18T01:04:45;98078.16;;;2.50;73.15
71917;BME280;59793;46.506;6.674;2022-12-18T01:07:11;98075.56;;;2.39;73.33
71917;BME280;59793;46.506;6.674;2022-12-18T01:09:36;98080.50;;;2.46;73.36
71917;BME280;59793;46.506;6.674;2022-12-18T01:12:01;98093.78;;;2.55;73.02
71917;BME280;59793;46.506;6.674;2022-12-18T01:14:26;98095.31;;;2.56;72.91
71917;BME280;59793;46.506;6.674;2022-12-18T01:16:52;98099.75;;;2.45;73.40
71917;BME280;59793;46.506;6.674;2022-12-18T01:19:17;98096.63;;;2.53;73.10
71917;BME280;59793;46.506;6.674;2022-12-18T01:21:42;98094.03;;;2.53;73.48
71917;BME280;59793;46.506;6.674;2022-12-18T01:24:10;98094.28;;;2.52;73.73
71917;BME280;59793;46.506;6.674;2022-12-18T01:26:36;98090.91;;;2.46;73.36
71917;BME280;59793;46.506;6.674;2022-12-18T01:29:01;98101.84;;;2.58;73.12
71917;BME280;59793;46.506;6.674;2022-12-18T01:31:28;98117.16;;;2.60;72.63
71917;BME280;59793;46.506;6.674;2022-12-18T01:33:54;98119.00;;;2.49;73.11
71917;BME280;59793;46.506;6.674;2022-12-18T01:36:20;98122.38;;;2.50;72.94
71917;BME280;59793;46.506;6.674;2022-12-18T01:38:46;98129.94;;;2.41;72.84
71917;BME280;59793;46.506;6.674;2022-12-18T01:41:12;98136.97;;;2.41;72.44
71917;BME280;59793;46.506;6.674;2022-12-18T01:43:45;98128.59;;;2.44;72.09
71917;BME280;59793;46.506;6.674;2022-12-18T01:46:10;98129.94;;;2.41;72.34
71917;BME280;59793;46.506;6.674;2022-12-18T01:48:36;98138.22;;;2.43;72.58
71917;BME280;59793;46.506;6.674;2022-12-18T01:51:01;98135.91;;;2.31;72.59
71917;BME280;59793;46.506;6.674;2022-12-18T01:53:26;98140.56;;;2.24;72.32
71917;BME280;59793;46.506;6.674;2022-12-18T01:55:53;98142.38;;;2.19;72.59
71917;BME280;59793;46.506;6.674;2022-12-18T01:58:20;98155.94;;;2.31;72.63
71917;BME280;59793;46.506;6.674;2022-12-18T02:00:47;98134.88;;;2.27;72.35
71917;BME280;59793;46.506;6.674;2022-12-18T02:03:12;98149.94;;;2.25;72.40
71917;BME280;59793;46.506;6.674;2022-12-18T02:06:40;98142.66;;;2.32;72.48
71917;BME280;59793;46.506;6.674;2022-12-18T02:08:38;98141.34;;;2.25;71.70
71917;BME280;59793;46.506;6.674;2022-12-18T02:16:39;98156.19;;;2.24;72.24
71917;BME280;59793;46.506;6.674;2022-12-18T02:19:14;98164.25;;;2.43;71.87
71917;BME280;59793;46.506;6.674;2022-12-18T02:27:22;98166.06;;;2.37;71.47
71917;BME280;59793;46.506;6.674;2022-12-18T02:29:51;98171.28;;;2.37;71.91
71917;BME280;59793;46.506;6.674;2022-12-18T02:32:20;98172.31;;;2.52;71.85
71917;BME280;59793;46.506;6.674;2022-12-18T02:34:48;98172.31;;;2.62;70.63
71917;BME280;59793;46.506;6.674;2022-12-18T02:37:15;98169.19;;;2.39;71.00
71917;BME280;59793;46.506;6.674;2022-12-18T02:39:43;98167.88;;;2.47;71.44
71917;BME280;59793;46.506;6.674;2022-12-18T02:42:09;98165.81;;;2.49;71.09
71917;BME280;59793;46.506;6.674;2022-12-18T02:44:46;98166.31;;;2.46;71.50
71917;BME280;59793;46.506;6.674;2022-12-18T02:47:12;98163.97;;;2.39;71.27
71917;BME280;59793;46.506;6.674;2022-12-18T02:52:33;98166.06;;;2.27;72.00
71917;BME280;59793;46.506;6.674;2022-12-18T02:57:42;98171.78;;;2.29;72.68
71917;BME280;59793;46.506;6.674;2022-12-18T03:00:12;98179.56;;;2.24;73.20
71917;BME280;59793;46.506;6.674;2022-12-18T03:05:13;98176.72;;;2.21;73.27
71917;BME280;59793;46.506;6.674;2022-12-18T03:07:42;98178.03;;;2.23;73.24
71917;BME280;59793;46.506;6.674;2022-12-18T03:10:11;98178.00;;;2.28;73.30
71917;BME280;59793;46.506;6.674;2022-12-18T03:12:40;98182.19;;;2.19;73.72
71917;BME280;59793;46.506;6.674;2022-12-18T03:15:21;98190.47;;;2.21;73.71
71917;BME280;59793;46.506;6.674;2022-12-18T03:17:52;98189.19;;;2.19;73.92
71917;BME280;59793;46.506;6.674;2022-12-18T03:20:21;98187.09;;;2.10;74.15
71917;BME280;59793;46.506;6.674;2022-12-18T03:22:47;98188.91;;;2.15;73.76
71917;BME280;59793;46.506;6.674;2022-12-18T03:25:16;98183.97;;;2.19;74.08
71917;BME280;59793;46.506;6.674;2022-12-18T03:27:44;98180.09;;;2.16;74.24
71917;BME280;59793;46.506;6.674;2022-12-18T03:30:11;98184.22;;;2.12;74.65
71917;BME280;59793;46.506;6.674;2022-12-18T03:35:05;98180.84;;;2.11;73.96
71917;BME280;59793;46.506;6.674;2022-12-18T03:37:32;98182.66;;;2.11;74.01
71917;BME280;59793;46.506;6.674;2022-12-18T03:39:58;98177.75;;;2.09;74.15
71917;BME280;59793;46.506;6.674;2022-12-18T03:42:37;98185.25;;;2.01;74.38
71917;BME280;59793;46.506;6.674;2022-12-18T03:52:48;98190.19;;;2.02;75.22
71917;BME280;59793;46.506;6.674;2022-12-18T03:55:15;98183.16;;;1.92;74.78
71917;BME280;59793;46.506;6.674;2022-12-18T03:57:42;98183.19;;;2.03;74.48
71917;BME280;59793;46.506;6.674;2022-12-18T04:00:10;98176.38;;;1.86;74.69
71917;BME280;59793;46.506;6.674;2022-12-18T04:02:37;98180.00;;;1.85;74.25
71917;BME280;59793;46.506;6.674;2022-12-18T04:05:04;98183.16;;;1.92;74.35
71917;BME280;59793;46.506;6.674;2022-12-18T04:07:31;98185.75;;;1.87;74.28
71917;BME280;59793;46.506;6.674;2022-12-18T04:09:56;98183.66;;;1.84;74.17
71917;BME280;59793;46.506;6.674;2022-12-18T04:12:26;98183.06;;;1.67;74.98
71917;BME280;59793;46.506;6.674;2022-12-18T04:14:53;98178.88;;;1.61;75.32
71917;BME280;59793;46.506;6.674;2022-12-18T04:17:19;98184.31;;;1.49;75.59
71917;BME280;59793;46.506;6.674;2022-12-18T04:19:44;98182.44;;;1.44;75.81
71917;BME280;59793;46.506;6.674;2022-12-18T04:22:10;98191.22;;;1.28;76.55
71917;BME280;59793;46.506;6.674;2022-12-18T04:24:35;98184.47;;;1.32;76.42
71917;BME280;59793;46.506;6.674;2022-12-18T04:27:01;98183.44;;;1.33;76.65
71917;BME280;59793;46.506;6.674;2022-12-18T04:29:26;98190.72;;;1.31;76.66
71917;BME280;59793;46.506;6.674;2022-12-18T04:31:51;98194.59;;;1.34;76.32
71917;BME280;59793;46.506;6.674;2022-12-18T04:34:16;98193.34;;;1.41;76.01
71917;BME280;59793;46.506;6.674;2022-12-18T04:36:41;98187.13;;;1.42;75.95
71917;BME280;59793;46.506;6.674;2022-12-18T04:39:07;98190.72;;;1.36;76.82
71917;BME280;59793;46.506;6.674;2022-12-18T04:41:34;98208.91;;;1.36;76.56
71917;BME280;59793;46.506;6.674;2022-12-18T04:43:59;98206.56;;;1.35;76.76
71917;BME280;59793;46.506;6.674;2022-12-18T04:46:24;98212.00;;;1.33;76.97
71917;BME280;59793;46.506;6.674;2022-12-18T04:48:50;98207.34;;;1.35;76.80
71917;BME280;59793;46.506;6.674;2022-12-18T04:51:15;98209.66;;;1.37;76.85
71917;BME280;59793;46.506;6.674;2022-12-18T04:53:40;98212.53;;;1.40;76.69
71917;BME280;59793;46.506;6.674;2022-12-18T04:56:09;98205.53;;;1.41;76.71
71917;BME280;59793;46.506;6.674;2022-12-18T04:58:35;98207.41;;;1.51;76.43
71917;BME280;59793;46.506;6.674;2022-12-18T05:01:01;98211.34;;;1.58;76.13
71917;BME280;59793;46.506;6.674;2022-12-18T05:03:26;98215.25;;;1.66;76.16
71917;BME280;59793;46.506;6.674;2022-12-18T05:05:51;98222.53;;;1.69;76.22
71917;BME280;59793;46.506;6.674;2022-12-18T05:08:17;98221.53;;;1.70;75.94
71917;BME280;59793;46.506;6.674;2022-12-18T05:10:42;98216.31;;;1.65;76.54
71917;BME280;59793;46.506;6.674;2022-12-18T05:13:07;98219.94;;;1.64;76.48
71917;BME280;59793;46.506;6.674;2022-12-18T05:15:33;98219.66;;;1.60;76.22
71917;BME280;59793;46.506;6.674;2022-12-18T05:17:58;98232.38;;;1.57;76.34
71917;BME280;59793;46.506;6.674;2022-12-18T05:20:24;98230.06;;;1.60;76.31
71917;BME280;59793;46.506;6.674;2022-12-18T05:22:50;98229.31;;;1.70;76.11
71917;BME280;59793;46.506;6.674;2022-12-18T05:25:15;98244.34;;;1.63;76.50
71917;BME280;59793;46.506;6.674;2022-12-18T05:27:40;98226.19;;;1.73;76.11
71917;BME280;59793;46.506;6.674;2022-12-18T05:30:06;98238.69;;;1.76;75.77
71917;BME280;59793;46.506;6.674;2022-12-18T05:32:31;98231.66;;;1.72;75.98
71917;BME280;59793;46.506;6.674;2022-12-18T05:34:56;98238.69;;;1.76;75.89
71917;BME280;59793;46.506;6.674;2022-12-18T05:37:22;98231.94;;;1.75;75.56
71917;BME280;59793;46.506;6.674;2022-12-18T05:39:47;98240.75;;;1.74;75.92
71917;BME280;59793;46.506;6.674;2022-12-18T05:42:12;98227.75;;;1.69;75.81
71917;BME280;59793;46.506;6.674;2022-12-18T05:44:38;98237.56;;;1.62;76.00
71917;BME280;59793;46.506;6.674;2022-12-18T05:47:03;98237.06;;;1.60;76.13
71917;BME280;59793;46.506;6.674;2022-12-18T05:49:29;98239.66;;;1.60;75.67
71917;BME280;59793;46.506;6.674;2022-12-18T05:51:54;98241.00;;;1.67;75.95
71917;BME280;59793;46.506;6.674;2022-12-18T05:54:19;98250.84;;;1.65;75.94
71917;BME280;59793;46.506;6.674;2022-12-18T05:56:45;98258.34;;;1.62;76.21
71917;BME280;59793;46.506;6.674;2022-12-18T05:59:10;98258.91;;;1.69;75.87
71917;BME280;59793;46.506;6.674;2022-12-18T06:01:35;98262.06;;;1.71;75.97
71917;BME280;59793;46.506;6.674;2022-12-18T06:04:00;98262.00;;;1.66;76.44
71917;BME280;59793;46.506;6.674;2022-12-18T06:06:26;98254.16;;;1.51;77.07
71917;BME280;59793;46.506;6.674;2022-12-18T06:08:52;98253.94;;;1.57;76.85
71917;BME280;59793;46.506;6.674;2022-12-18T06:11:19;98262.06;;;1.71;76.55
71917;BME280;59793;46.506;6.674;2022-12-18T06:13:45;98255.84;;;1.77;76.25
71917;BME280;59793;46.506;6.674;2022-12-18T06:16:10;98261.50;;;1.64;77.10
71917;BME280;59793;46.506;6.674;2022-12-18T06:18:35;98259.97;;;1.73;76.77
71917;BME280;59793;46.506;6.674;2022-12-18T06:21:01;98260.53;;;1.80;76.25
71917;BME280;59793;46.506;6.674;2022-12-18T06:23:27;98269.84;;;1.76;76.36
71917;BME280;59793;46.506;6.674;2022-12-18T06:25:52;98244.84;;;1.60;76.43
71917;BME280;59793;46.506;6.674;2022-12-18T06:28:17;98264.72;;;1.86;76.03
71917;BME280;59793;46.506;6.674;2022-12-18T06:30:43;98265.75;;;1.90;75.98
71917;BME280;59793;46.506;6.674;2022-12-18T06:33:08;98274.31;;;1.86;76.04
71917;BME280;59793;46.506;6.674;2022-12-18T06:35:34;98282.41;;;1.89;76.23
71917;BME280;59793;46.506;6.674;2022-12-18T06:38:00;98286.03;;;1.94;76.10
71917;BME280;59793;46.506;6.674;2022-12-18T06:40:25;98282.97;;;2.02;75.36
71917;BME280;59793;46.506;6.674;2022-12-18T06:42:51;98292.34;;;2.08;75.54
71917;BME280;59793;46.506;6.674;2022-12-18T06:45:16;98298.50;;;1.86;75.85
71917;BME280;59793;46.506;6.674;2022-12-18T06:47:41;98301.34;;;1.85;76.25
71917;BME280;59793;46.506;6.674;2022-12-18T06:50:06;98308.09;;;1.81;76.43
71917;BME280;59793;46.506;6.674;2022-12-18T06:52:32;98313.50;;;1.74;76.62
71917;BME280;59793;46.506;6.674;2022-12-18T06:54:57;98314.00;;;1.71;76.94
71917;BME280;59793;46.506;6.674;2022-12-18T06:57:23;98321.31;;;1.79;76.63
71917;BME280;59793;46.506;6.674;2022-12-18T06:59:48;98321.88;;;1.86;76.50
71917;BME280;59793;46.506;6.674;2022-12-18T07:02:13;98329.72;;;1.97;75.84
71917;BME280;59793;46.506;6.674;2022-12-18T07:04:39;98333.66;;;2.04;76.12
71917;BME280;59793;46.506;6.674;2022-12-18T07:07:04;98334.19;;;2.11;75.91
71917;BME280;59793;46.506;6.674;2022-12-18T07:09:29;98339.88;;;2.03;75.37
71917;BME280;59793;46.506;6.674;2022-12-18T07:11:54;98335.13;;;1.90;75.98
71917;BME280;59793;46.506;6.674;2022-12-18T07:14:20;98333.38;;;2.01;75.89
71917;BME280;59793;46.506;6.674;2022-12-18T07:16:45;98338.63;;;2.06;75.84
71917;BME280;59793;46.506;6.674;2022-12-18T07:19:10;98348.78;;;2.12;76.10
71917;BME280;59793;46.506;6.674;2022-12-18T07:21:36;98346.47;;;2.16;75.60
71917;BME280;59793;46.506;6.674;2022-12-18T07:24:01;98351.13;;;2.14;75.48
71917;BME280;59793;46.506;6.674;2022-12-18T07:26:26;98350.03;;;2.05;76.18
71917;BME280;59793;46.506;6.674;2022-12-18T07:28:54;98351.59;;;2.06;76.56
71917;BME280;59793;46.506;6.674;2022-12-18T07:31:20;98352.13;;;2.03;76.64
71917;BME280;59793;46.506;6.674;2022-12-18T07:33:46;98349.53;;;2.08;76.58
71917;BME280;59793;46.506;6.674;2022-12-18T07:36:12;98350.31;;;2.08;76.49
71917;BME280;59793;46.506;6.674;2022-12-18T07:38:37;98354.44;;;2.04;76.22
71917;BME280;59793;46.506;6.674;2022-12-18T07:41:09;98356.81;;;2.11;75.82
71917;BME280;59793;46.506;6.674;2022-12-18T07:43:35;98363.84;;;2.10;75.79
71917;BME280;59793;46.506;6.674;2022-12-18T07:46:00;98363.84;;;2.10;75.87
71917;BME280;59793;46.506;6.674;2022-12-18T07:48:26;98359.47;;;2.21;75.37
71917;BME280;59793;46.506;6.674;2022-12-18T07:50:51;98362.09;;;2.26;75.58
71917;BME280;59793;46.506;6.674;2022-12-18T07:53:16;98364.75;;;2.42;75.04
71917;BME280;59793;46.506;6.674;2022-12-18T07:55:42;98365.34;;;2.59;74.52
71917;BME280;59793;46.506;6.674;2022-12-18T07:58:07;98365.66;;;2.83;73.68
71917;BME280;59793;46.506;6.674;2022-12-18T08:00:33;98373.47;;;2.93;73.79
71917;BME280;59793;46.506;6.674;2022-12-18T08:02:58;98372.19;;;2.91;73.41
71917;BME280;59793;46.506;6.674;2022-12-18T08:05:24;98375.56;;;2.91;73.51
71917;BME280;59793;46.506;6.674;2022-12-18T08:07:49;98371.88;;;2.67;73.91
71917;BME280;59793;46.506;6.674;2022-12-18T08:10:14;98370.59;;;2.79;73.82
71917;BME280;59793;46.506;6.674;2022-12-18T08:12:39;98376.06;;;2.88;73.82
71917;BME280;59793;46.506;6.674;2022-12-18T08:15:05;98374.28;;;2.94;73.06
71917;BME280;59793;46.506;6.674;2022-12-18T08:17:31;98369.06;;;2.94;73.02
71917;BME280;59793;46.506;6.674;2022-12-18T08:19:56;98365.44;;;3.10;72.62
71917;BME280;59793;46.506;6.674;2022-12-18T08:22:21;98369.06;;;2.99;72.23
71917;BME280;59793;46.506;6.674;2022-12-18T08:24:46;98374.53;;;2.97;72.54
71917;BME280;59793;46.506;6.674;2022-12-18T08:27:12;98374.28;;;3.14;72.07
71917;BME280;59793;46.506;6.674;2022-12-18T08:29:37;98374.84;;;3.26;72.36
71917;BME280;59793;46.506;6.674;2022-12-18T08:32:03;98370.13;;;3.23;72.10
71917;BME280;59793;46.506;6.674;2022-12-18T08:34:28;98365.97;;;3.22;72.44
71917;BME280;59793;46.506;6.674;2022-12-18T08:36:53;98359.44;;;3.25;72.77
71917;BME280;59793;46.506;6.674;2022-12-18T08:39:19;98355.81;;;3.21;72.96
71917;BME280;59793;46.506;6.674;2022-12-18T08:41:44;98356.59;;;3.31;72.17
71917;BME280;59793;46.506;6.674;2022-12-18T08:44:29;98352.69;;;3.39;71.61
71917;BME280;59793;46.506;6.674;2022-12-18T08:47:04;98358.41;;;3.67;70.14
71917;BME280;59793;46.506;6.674;2022-12-18T08:49:30;98362.03;;;3.86;70.02
71917;BME280;59793;46.506;6.674;2022-12-18T08:51:55;98353.66;;;3.94;69.69
71917;BME280;59793;46.506;6.674;2022-12-18T08:54:22;98358.59;;;4.01;69.30
71917;BME280;59793;46.506;6.674;2022-12-18T08:56:48;98359.09;;;4.08;69.21
71917;BME280;59793;46.506;6.674;2022-12-18T08:59:14;98354.13;;;4.12;69.10
71917;BME280;59793;46.506;6.674;2022-12-18T09:01:39;98359.56;;;4.20;69.12
71917;BME280;59793;46.506;6.674;2022-12-18T09:04:05;98358.53;;;4.21;69.00
71917;BME280;59793;46.506;6.674;2022-12-18T09:06:30;98343.47;;;4.03;67.97
71917;BME280;59793;46.506;6.674;2022-12-18T09:08:56;98363.31;;;3.94;68.44
71917;BME280;59793;46.506;6.674;2022-12-18T09:11:22;98368.00;;;3.97;68.53
71917;BME280;59793;46.506;6.674;2022-12-18T09:13:48;98366.38;;;4.16;68.25
71917;BME280;59793;46.506;6.674;2022-12-18T09:16:14;98363.78;;;4.11;67.24
71917;BME280;59793;46.506;6.674;2022-12-18T09:18:39;98359.28;;;4.32;66.90
71917;BME280;59793;46.506;6.674;2022-12-18T09:21:11;98354.38;;;4.70;66.15
71917;BME280;59793;46.506;6.674;2022-12-18T09:23:37;98372.53;;;5.35;65.21
71917;BME280;59793;46.506;6.674;2022-12-18T09:26:02;98381.84;;;6.04;64.14
71917;BME280;59793;46.506;6.674;2022-12-18T09:28:28;98380.22;;;6.56;61.30
71917;BME280;59793;46.506;6.674;2022-12-18T09:30:53;98375.41;;;6.44;59.54
71917;BME280;59793;46.506;6.674;2022-12-18T09:33:18;98374.50;;;6.54;59.73
71917;BME280;59793;46.506;6.674;2022-12-18T09:35:44;98373.91;;;6.38;59.63
71917;BME280;59793;46.506;6.674;2022-12-18T09:38:14;98369.91;;;6.22;60.50
71917;BME280;59793;46.506;6.674;2022-12-18T09:40:41;98370.91;;;5.73;60.81
71917;BME280;59793;46.506;6.674;2022-12-18T09:43:09;98369.31;;;5.43;61.77
71917;BME280;59793;46.506;6.674;2022-12-18T09:45:41;98377.63;;;5.50;62.25
71917;BME280;59793;46.506;6.674;2022-12-18T09:48:14;98373.25;;;5.06;63.22
71917;BME280;59793;46.506;6.674;2022-12-18T09:50:41;98375.38;;;4.99;63.73
71917;BME280;59793;46.506;6.674;2022-12-18T09:53:10;98379.59;;;4.95;64.13
71917;BME280;59793;46.506;6.674;2022-12-18T09:55:39;98370.81;;;4.75;64.80
71917;BME280;59793;46.506;6.674;2022-12-18T09:58:16;98369.16;;;4.90;64.17
71917;BME280;59793;46.506;6.674;2022-12-18T10:00:44;98372.78;;;4.99;63.86
71917;BME280;59793;46.506;6.674;2022-12-18T10:03:10;98367.97;;;5.16;64.10
71917;BME280;59793;46.506;6.674;2022-12-18T10:10:57;98373.53;;;4.55;65.21
71917;BME280;59793;46.506;6.674;2022-12-18T10:13:34;98374.41;;;4.35;66.13
71917;BME280;59793;46.506;6.674;2022-12-18T10:16:07;98376.41;;;4.53;65.07
71917;BME280;59793;46.506;6.674;2022-12-18T10:21:21;98371.28;;;4.88;64.29
71917;BME280;59793;46.506;6.674;2022-12-18T10:23:52;98372.94;;;4.68;65.20
71917;BME280;59793;46.506;6.674;2022-12-18T10:26:19;98372.38;;;4.76;65.46
71917;BME280;59793;46.506;6.674;2022-12-18T10:28:45;98364.91;;;5.04;64.48
71917;BME280;59793;46.506;6.674;2022-12-18T10:31:17;98357.44;;;5.26;63.40
71917;BME280;59793;46.506;6.674;2022-12-18T10:33:43;98369.31;;;5.43;63.29
71917;BME280;59793;46.506;6.674;2022-12-18T10:36:08;98357.81;;;5.44;62.53
71917;BME280;59793;46.506;6.674;2022-12-18T10:38:33;98358.41;;;5.36;62.50
71917;BME280;59793;46.506;6.674;2022-12-18T10:41:00;98359.53;;;5.24;63.25
71917;BME280;59793;46.506;6.674;2022-12-18T10:46:00;98357.66;;;4.91;63.86
71917;BME280;59793;46.506;6.674;2022-12-18T10:48:25;98363.69;;;5.31;63.00
71917;BME280;59793;46.506;6.674;2022-12-18T10:50:51;98374.91;;;5.31;63.02
71917;BME280;59793;46.506;6.674;2022-12-18T10:53:22;98366.28;;;5.94;61.51
71917;BME280;59793;46.506;6.674;2022-12-18T10:55:48;98368.06;;;6.22;59.80
71917;BME280;59793;46.506;6.674;2022-12-18T10:58:27;98364.97;;;7.01;58.17
71917;BME280;59793;46.506;6.674;2022-12-18T11:03:37;98364.94;;;6.44;60.11
71917;BME280;59793;46.506;6.674;2022-12-18T11:08:28;98358.50;;;6.75;59.65
71917;BME280;59793;46.506;6.674;2022-12-18T11:10:53;98347.47;;;6.78;59.03
71917;BME280;59793;46.506;6.674;2022-12-18T11:13:22;98354.34;;;6.31;60.00
71917;BME280;59793;46.506;6.674;2022-12-18T11:15:48;98356.06;;;5.63;62.33
71917;BME280;59793;46.506;6.674;2022-12-18T11:20:42;98353.69;;;5.96;61.53
71917;BME280;59793;46.506;6.674;2022-12-18T11:23:12;98349.47;;;6.00;61.05
71917;BME280;59793;46.506;6.674;2022-12-18T11:25:38;98355.66;;;6.33;59.73
71917;BME280;59793;46.506;6.674;2022-12-18T11:30:33;98357.66;;;6.17;60.26
71917;BME280;59793;46.506;6.674;2022-12-18T11:33:12;98365.59;;;6.31;60.25
71917;BME280;59793;46.506;6.674;2022-12-18T11:35:49;98364.88;;;6.68;59.22
71917;BME280;59793;46.506;6.674;2022-12-18T11:40:42;98359.53;;;6.79;58.99
71917;BME280;59793;46.506;6.674;2022-12-18T11:45:45;98348.88;;;6.89;58.86
71917;BME280;59793;46.506;6.674;2022-12-18T11:50:49;98323.59;;;7.91;56.41
71917;BME280;59793;46.506;6.674;2022-12-18T11:53:15;98331.28;;;7.74;55.94
71917;BME280;59793;46.506;6.674;2022-12-18T11:55:49;98325.16;;;8.33;54.38
71917;BME280;59793;46.506;6.674;2022-12-18T12:00:45;98314.50;;;10.44;48.21
71917;BME280;59793;46.506;6.674;2022-12-18T12:11:11;98301.75;;;12.39;43.62
71917;BME280;59793;46.506;6.674;2022-12-18T12:16:21;98278.22;;;10.33;47.66
71917;BME280;59793;46.506;6.674;2022-12-18T12:24:05;98281.38;;;11.89;44.76
71917;BME280;59793;46.506;6.674;2022-12-18T12:26:36;98279.34;;;12.46;42.41
71917;BME280;59793;46.506;6.674;2022-12-18T12:29:14;98274.81;;;14.44;38.81
71917;BME280;59793;46.506;6.674;2022-12-18T12:34:17;98273.38;;;13.24;40.43
71917;BME280;59793;46.506;6.674;2022-12-18T12:39:11;98271.06;;;14.85;36.78
71917;BME280;59793;46.506;6.674;2022-12-18T12:41:38;98265.00;;;16.46;34.53
71917;BME280;59793;46.506;6.674;2022-12-18T12:44:45;98262.03;;;18.02;31.43
71917;BME280;59793;46.506;6.674;2022-12-18T12:47:42;98262.38;;;18.27;30.58
71917;BME280;59793;46.506;6.674;2022-12-18T12:50:01;98263.88;;;18.54;29.81
71917;BME280;59793;46.506;6.674;2022-12-18T12:52:35;98255.84;;;19.66;28.65
71917;BME280;59793;46.506;6.674;2022-12-18T12:55:01;98245.03;;;17.37;31.38
71917;BME280;59793;46.506;6.674;2022-12-18T12:57:33;98249.16;;;17.81;30.71
71917;BME280;59793;46.506;6.674;2022-12-18T13:00:09;98251.81;;;18.34;30.66
71917;BME280;59793;46.506;6.674;2022-12-18T13:07:51;98246.88;;;20.72;27.14
71917;BME280;59793;46.506;6.674;2022-12-18T13:20:47;98238.25;;;19.21;28.30
71917;BME280;59793;46.506;6.674;2022-12-18T13:25:50;98235.97;;;17.88;31.07
71917;BME280;59793;46.506;6.674;2022-12-18T13:28:16;98230.97;;;18.77;28.96
71917;BME280;59793;46.506;6.674;2022-12-18T13:35:39;98215.22;;;20.05;27.04
71917;BME280;59793;46.506;6.674;2022-12-18T13:45:47;98208.59;;;20.65;26.30
71917;BME280;59793;46.506;6.674;2022-12-18T13:48:20;98214.00;;;21.90;24.59
71917;BME280;59793;46.506;6.674;2022-12-18T13:50:49;98213.63;;;21.02;25.90
71917;BME280;59793;46.506;6.674;2022-12-18T13:53:21;98214.78;;;21.01;25.87
71917;BME280;59793;46.506;6.674;2022-12-18T13:55:48;98216.72;;;21.08;26.16
71917;BME280;59793;46.506;6.674;2022-12-18T13:58:14;98215.19;;;21.03;25.22
71917;BME280;59793;46.506;6.674;2022-12-18T14:00:42;98211.31;;;20.83;25.47
71917;BME280;59793;46.506;6.674;2022-12-18T14:03:24;98211.16;;;20.36;26.50
71917;BME280;59793;46.506;6.674;2022-12-18T14:06:01;98214.88;;;20.21;26.55
71917;BME280;59793;46.506;6.674;2022-12-18T14:08:32;98212.50;;;18.31;29.52
71917;BME280;59793;46.506;6.674;2022-12-18T14:10:58;98202.59;;;17.02;31.82
71917;BME280;59793;46.506;6.674;2022-12-18T14:13:28;98207.56;;;16.42;33.06
71917;BME280;59793;46.506;6.674;2022-12-18T14:15:54;98205.13;;;17.41;31.51
71917;BME280;59793;46.506;6.674;2022-12-18T14:20:59;98215.09;;;19.84;28.28
71917;BME280;59793;46.506;6.674;2022-12-18T14:25:49;98210.41;;;18.47;29.65
71917;BME280;59793;46.506;6.674;2022-12-18T14:28:15;98218.31;;;18.06;30.75
71917;BME280;59793;46.506;6.674;2022-12-18T14:30:41;98216.22;;;16.97;31.98
71917;BME280;59793;46.506;6.674;2022-12-18T14:33:14;98225.19;;;16.31;33.55
71917;BME280;59793;46.506;6.674;2022-12-18T14:35:40;98222.22;;;14.58;36.83
71917;BME280;59793;46.506;6.674;2022-12-18T14:40:35;98225.06;;;13.14;39.97
71917;BME280;59793;46.506;6.674;2022-12-18T14:43:00;98217.44;;;13.13;40.05
71917;BME280;59793;46.506;6.674;2022-12-18T14:45:38;98223.47;;;12.68;41.69
71917;BME280;59793;46.506;6.674;2022-12-18T14:48:14;98222.72;;;12.47;42.36
71917;BME280;59793;46.506;6.674;2022-12-18T14:50:40;98229.94;;;11.95;43.78
71917;BME280;59793;46.506;6.674;2022-12-18T14:53:05;98235.75;;;12.10;43.39
71917;BME280;59793;46.506;6.674;2022-12-18T14:55:31;98235.28;;;12.08;43.82
71917;BME280;59793;46.506;6.674;2022-12-18T14:57:56;98234.22;;;12.09;43.26
71917;BME280;59793;46.506;6.674;2022-12-18T15:00:23;98228.97;;;11.70;44.01
71917;BME280;59793;46.506;6.674;2022-12-18T15:02:53;98232.38;;;12.01;43.52
71917;BME280;59793;46.506;6.674;2022-12-18T15:07:45;98229.00;;;11.15;45.89
71917;BME280;59793;46.506;6.674;2022-12-18T15:17:57;98222.25;;;11.43;45.30
71917;BME280;59793;46.506;6.674;2022-12-18T15:20:26;98236.06;;;10.76;46.48
71917;BME280;59793;46.506;6.674;2022-12-18T15:22:51;98245.13;;;9.83;49.28